createdAt,value
2022-11-10T00:00:20.423Z,24.80
2022-11-10T00:03:17.275Z,21.30
2022-11-10T00:06:05.905Z,19.20
2022-11-10T00:08:53.038Z,19.10
2022-11-10T00:11:40.594Z,20.80
2022-11-10T00:14:46.442Z,18.10
2022-11-10T00:17:36.962Z,19.80
2022-11-10T00:20:24.122Z,17.00
2022-11-10T00:23:11.587Z,15.50
2022-11-10T00:25:59.505Z,15.90
2022-11-10T00:28:46.646Z,16.70
2022-11-10T00:31:33.527Z,16.90
2022-11-10T00:34:20.764Z,17.60
2022-11-10T00:37:08.016Z,18.20
2022-11-10T00:39:55.956Z,16.80
2022-11-10T00:42:43.132Z,14.70
2022-11-10T00:45:30.474Z,16.70
2022-11-10T00:48:17.710Z,17.20
2022-11-10T00:51:06.031Z,21.50
2022-11-10T00:53:53.771Z,16.20
2022-11-10T00:56:41.398Z,17.90
2022-11-10T00:59:28.858Z,16.10
2022-11-10T01:02:15.989Z,17.20
2022-11-10T01:05:02.730Z,17.90
2022-11-10T01:07:50.006Z,19.00
2022-11-10T01:10:37.075Z,17.60
2022-11-10T01:13:24.836Z,16.70
2022-11-10T01:16:15.368Z,16.50
2022-11-10T01:19:03.656Z,18.00
2022-11-10T01:21:52.443Z,17.70
2022-11-10T01:24:39.948Z,17.60
2022-11-10T01:27:26.912Z,15.40
2022-11-10T01:30:14.369Z,18.50
2022-11-10T01:33:01.694Z,17.70
2022-11-10T01:35:48.893Z,19.00
2022-11-10T01:38:37.984Z,16.10
2022-11-10T01:41:25.332Z,15.40
2022-11-10T01:44:23.023Z,16.90
2022-11-10T01:47:10.066Z,17.60
2022-11-10T01:49:57.084Z,17.40
2022-11-10T01:52:48.629Z,14.50
2022-11-10T01:55:39.159Z,14.10
2022-11-10T01:58:32.044Z,15.90
2022-11-10T02:01:20.268Z,17.80
2022-11-10T02:04:13.383Z,18.50
2022-11-10T02:07:00.781Z,14.20
2022-11-10T02:09:48.648Z,16.90
2022-11-10T02:12:38.925Z,17.90
2022-11-10T02:15:27.169Z,15.10
2022-11-10T02:18:14.591Z,16.50
2022-11-10T09:32:34.549Z,6.60
2022-11-10T09:46:35.515Z,8.50
2022-11-10T09:49:39.834Z,6.40
2022-11-10T09:52:31.680Z,6.80
2022-11-10T09:55:30.659Z,5.00
2022-11-10T09:58:20.399Z,5.00
2022-11-10T10:02:09.920Z,5.70
2022-11-10T10:05:31.804Z,7.30
2022-11-10T10:08:54.516Z,6.70
2022-11-10T10:12:09.118Z,5.10
2022-11-10T10:15:25.676Z,7.00
2022-11-10T10:18:22.316Z,7.50
2022-11-10T10:21:21.845Z,4.40
2022-11-10T10:24:21.473Z,5.70
2022-11-10T10:27:21.279Z,3.80
2022-11-10T10:30:14.681Z,6.20
2022-11-10T10:33:13.388Z,5.80
2022-11-10T10:36:08.518Z,4.50
2022-11-10T10:39:12.169Z,3.60
2022-11-10T10:41:59.860Z,4.50
2022-11-10T10:45:21.497Z,4.30
2022-11-10T10:48:30.059Z,3.50
2022-11-10T10:51:29.883Z,5.20
2022-11-10T10:54:35.446Z,5.60
2022-11-10T10:57:30.438Z,3.20
2022-11-10T11:00:24.062Z,3.30
2022-11-10T11:03:39.410Z,5.70
2022-11-10T11:06:29.509Z,5.70
2022-11-10T11:09:26.221Z,4.40
2022-11-10T11:12:20.283Z,4.00
2022-11-10T11:15:16.727Z,6.00
2022-11-10T11:18:13.403Z,4.40
2022-11-10T11:21:24.591Z,5.90
2022-11-10T11:24:53.583Z,4.40
2022-11-10T11:28:04.260Z,3.90
2022-11-10T11:31:10.092Z,3.30
2022-11-10T11:34:13.004Z,3.80
2022-11-10T11:40:30.122Z,4.20
2022-11-10T11:43:47.188Z,8.00
2022-11-10T11:46:44.951Z,7.80
2022-11-10T11:49:47.483Z,7.60
2022-11-10T11:52:44.659Z,9.20
2022-11-10T11:56:05.822Z,8.40
2022-11-10T11:59:13.143Z,6.20
2022-11-10T12:02:57.777Z,8.20
2022-11-10T12:06:03.330Z,6.40
2022-11-10T12:09:03.160Z,10.20
2022-11-10T12:12:16.139Z,9.50
2022-11-10T12:18:28.424Z,10.60
2022-11-10T16:23:53.345Z,15.40
2022-11-10T16:26:39.726Z,18.50
2022-11-10T16:29:25.767Z,14.50
2022-11-10T16:32:12.234Z,14.40
2022-11-10T16:34:57.921Z,11.00
2022-11-10T16:37:43.498Z,16.10
2022-11-10T16:40:29.797Z,12.70
2022-11-10T16:43:16.637Z,14.30
2022-11-10T16:46:05.287Z,12.10
2022-11-10T16:48:54.925Z,13.20
2022-11-10T16:51:48.296Z,16.70
2022-11-10T16:54:35.085Z,16.20
2022-11-10T16:57:20.697Z,13.60
2022-11-10T17:00:08.163Z,13.30
2022-11-10T17:03:03.027Z,13.90
2022-11-10T17:05:49.425Z,16.10
2022-11-10T17:08:35.560Z,11.70
2022-11-10T17:11:21.468Z,10.00
2022-11-10T17:14:10.330Z,14.60
2022-11-10T17:16:56.492Z,14.20
2022-11-10T17:19:42.545Z,11.80
2022-11-10T17:22:31.506Z,13.10
2022-11-10T17:25:29.591Z,16.00
2022-11-10T17:28:17.174Z,15.50
2022-11-10T17:31:03.069Z,14.60
2022-11-10T17:33:48.995Z,13.10
2022-11-10T17:36:34.710Z,13.80
2022-11-10T17:39:21.999Z,17.90
2022-11-10T17:42:13.052Z,15.70
2022-11-10T17:44:59.518Z,16.10
2022-11-10T17:47:45.975Z,15.90
2022-11-10T17:50:32.865Z,20.10
2022-11-10T17:53:22.430Z,23.00
2022-11-10T17:56:09.282Z,16.10
2022-11-10T17:58:55.510Z,18.20
2022-11-10T18:01:41.499Z,18.20
2022-11-10T18:04:27.317Z,20.30
2022-11-10T18:07:13.224Z,17.00
2022-11-10T18:09:58.870Z,13.20
2022-11-10T18:12:45.147Z,15.20
2022-11-10T18:15:30.947Z,15.00
2022-11-10T18:18:17.692Z,18.10
2022-11-10T18:21:05.225Z,18.80
2022-11-10T18:23:51.572Z,18.80
2022-11-10T18:26:37.751Z,14.90
2022-11-10T18:29:23.946Z,16.10
2022-11-10T18:32:09.611Z,18.40
2022-11-10T18:34:55.226Z,19.60
2022-11-10T18:37:40.729Z,16.70
2022-11-10T18:40:26.653Z,16.80
2022-11-10T18:43:12.473Z,12.60
2022-11-10T18:45:58.556Z,14.20
2022-11-10T18:48:45.461Z,17.70
2022-11-10T18:51:31.874Z,16.80
2022-11-10T18:54:17.650Z,15.20
2022-11-10T18:57:03.838Z,17.00
2022-11-10T18:59:49.686Z,13.90
2022-11-10T19:02:35.931Z,14.90
2022-11-10T19:05:21.657Z,15.70
2022-11-10T19:08:08.162Z,17.80
2022-11-10T19:10:55.582Z,12.60
2022-11-10T19:13:42.357Z,15.60
2022-11-10T19:16:29.715Z,17.40
2022-11-10T19:19:16.191Z,19.30
2022-11-10T19:22:02.314Z,15.50
2022-11-10T19:25:06.998Z,16.30
2022-11-10T19:27:55.896Z,19.40
2022-11-10T19:30:41.795Z,16.90
2022-11-10T19:33:29.729Z,19.70
2022-11-10T19:36:21.858Z,18.30
2022-11-10T19:39:09.851Z,20.20
2022-11-10T19:41:55.975Z,16.70
2022-11-10T19:44:41.837Z,13.80
2022-11-10T19:47:29.722Z,17.90
2022-11-10T19:50:16.121Z,14.40
2022-11-10T19:53:02.036Z,20.20
2022-11-10T19:55:48.254Z,14.80
2022-11-10T19:58:37.548Z,19.20
2022-11-10T20:01:23.977Z,19.90
2022-11-10T20:04:11.915Z,17.40
2022-11-10T20:07:16.385Z,20.50
2022-11-10T20:10:02.843Z,17.00
2022-11-10T20:12:49.184Z,15.90
2022-11-10T20:15:42.154Z,14.70
2022-11-10T20:18:28.081Z,17.70
2022-11-10T20:21:17.142Z,12.40
2022-11-10T20:24:06.624Z,13.40
2022-11-10T20:26:52.408Z,15.50
2022-11-10T20:29:39.018Z,16.00
2022-11-10T20:32:26.207Z,15.60
2022-11-10T20:35:12.442Z,11.20
2022-11-10T20:37:58.270Z,13.70
2022-11-10T20:40:45.177Z,13.10
2022-11-10T20:43:35.777Z,15.20
2022-11-10T20:46:40.722Z,16.70
2022-11-10T20:49:28.808Z,17.60
2022-11-10T20:52:14.917Z,12.80
2022-11-10T20:55:01.247Z,14.50
2022-11-10T20:57:47.954Z,13.50
2022-11-10T21:00:33.607Z,18.90
2022-11-10T21:03:20.973Z,14.50
2022-11-10T21:06:08.337Z,14.20
2022-11-10T21:08:55.812Z,11.60
2022-11-10T21:12:00.743Z,16.70
2022-11-10T21:14:46.936Z,14.50
2022-11-10T21:17:32.735Z,15.90
2022-11-10T21:20:18.609Z,12.50
2022-11-10T21:23:04.280Z,17.40
2022-11-10T21:25:58.831Z,14.20
2022-11-10T21:28:44.701Z,11.10
2022-11-10T21:31:30.949Z,16.20
2022-11-10T21:34:16.783Z,15.50
2022-11-10T21:37:03.677Z,16.80
2022-11-10T21:39:49.635Z,18.30
2022-11-10T21:42:35.828Z,16.60
2022-11-10T21:45:22.362Z,17.20
2022-11-10T21:48:08.618Z,13.10
2022-11-10T21:51:06.451Z,13.30
2022-11-10T21:53:52.336Z,14.10
2022-11-10T21:56:41.225Z,16.40
2022-11-10T21:59:27.475Z,15.70
2022-11-10T22:02:14.519Z,20.10
2022-11-10T22:05:00.436Z,15.50
2022-11-10T22:07:46.020Z,17.80
2022-11-10T22:10:50.749Z,15.90
2022-11-10T22:13:55.684Z,15.40
2022-11-10T22:17:06.845Z,16.70
2022-11-10T22:19:53.738Z,14.60
2022-11-10T22:22:39.431Z,16.30
2022-11-10T22:25:25.255Z,17.30
2022-11-10T22:28:10.863Z,13.90
2022-11-10T22:30:57.091Z,18.90
2022-11-10T22:33:42.862Z,19.10
2022-11-10T22:36:29.153Z,20.60
2022-11-10T22:39:15.922Z,13.00
2022-11-10T22:42:31.603Z,22.60
2022-11-10T22:45:17.055Z,14.70
2022-11-10T22:48:22.431Z,16.10
2022-11-10T22:51:08.308Z,12.40
2022-11-10T22:53:54.068Z,16.10
2022-11-10T22:56:40.639Z,17.20
2022-11-10T22:59:26.958Z,21.10
2022-11-10T23:02:12.766Z,12.70
2022-11-10T23:04:58.833Z,13.90
2022-11-10T23:07:44.887Z,15.40
2022-11-10T23:10:31.460Z,15.20
2022-11-10T23:13:17.127Z,13.70
2022-11-10T23:16:06.027Z,20.80
2022-11-10T23:18:53.196Z,15.60
2022-11-10T23:21:39.238Z,18.10
2022-11-10T23:24:24.985Z,12.50
2022-11-10T23:27:11.086Z,13.90
2022-11-10T23:29:56.718Z,17.40
2022-11-10T23:32:42.514Z,13.20
2022-11-10T23:35:28.120Z,16.50
2022-11-10T23:38:14.375Z,14.50
2022-11-10T23:41:01.652Z,16.40
2022-11-10T23:43:47.565Z,15.20
2022-11-10T23:46:33.555Z,19.60
2022-11-10T23:49:19.602Z,14.00
2022-11-10T23:52:05.511Z,16.20
2022-11-10T23:54:51.777Z,15.40
2022-11-10T23:57:37.744Z,19.80
